sensor_id;sensor_type;location;lat;lon;timestamp;temperature;humidity
67868;SHT31;54672;46.096;14.470;2023-03-14T00:02:16;11.18;71.32
67868;SHT31;54672;46.096;14.470;2023-03-14T00:04:42;11.09;71.86
67868;SHT31;54672;46.096;14.470;2023-03-14T00:07:07;11.08;72.78
67868;SHT31;54672;46.096;14.470;2023-03-14T00:09:35;11.11;72.89
67868;SHT31;54672;46.096;14.470;2023-03-14T00:12:01;11.04;73.15
67868;SHT31;54672;46.096;14.470;2023-03-14T00:14:29;10.98;73.42
67868;SHT31;54672;46.096;14.470;2023-03-14T00:16:55;10.98;73.44
67868;SHT31;54672;46.096;14.470;2023-03-14T00:19:20;11.09;73.33
67868;SHT31;54672;46.096;14.470;2023-03-14T00:21:46;11.11;73.85
67868;SHT31;54672;46.096;14.470;2023-03-14T00:24:12;11.11;73.95
67868;SHT31;54672;46.096;14.470;2023-03-14T00:26:37;11.14;74.48
67868;SHT31;54672;46.096;14.470;2023-03-14T00:29:03;11.14;74.57
67868;SHT31;54672;46.096;14.470;2023-03-14T00:31:29;11.19;74.62
67868;SHT31;54672;46.096;14.470;2023-03-14T00:33:54;11.22;74.84
67868;SHT31;54672;46.096;14.470;2023-03-14T00:36:21;11.25;74.84
67868;SHT31;54672;46.096;14.470;2023-03-14T00:38:48;11.27;75.25
67868;SHT31;54672;46.096;14.470;2023-03-14T00:41:20;11.26;75.45
67868;SHT31;54672;46.096;14.470;2023-03-14T00:43:47;11.29;75.73
67868;SHT31;54672;46.096;14.470;2023-03-14T00:46:13;11.32;75.66
67868;SHT31;54672;46.096;14.470;2023-03-14T00:48:38;11.32;75.83
67868;SHT31;54672;46.096;14.470;2023-03-14T00:51:05;11.26;76.19
67868;SHT31;54672;46.096;14.470;2023-03-14T00:53:31;11.25;76.57
67868;SHT31;54672;46.096;14.470;2023-03-14T00:56:03;11.29;76.63
67868;SHT31;54672;46.096;14.470;2023-03-14T00:58:29;11.23;77.07
67868;SHT31;54672;46.096;14.470;2023-03-14T01:00:54;11.19;77.11
67868;SHT31;54672;46.096;14.470;2023-03-14T01:03:20;11.20;77.01
67868;SHT31;54672;46.096;14.470;2023-03-14T01:05:45;11.22;77.05
67868;SHT31;54672;46.096;14.470;2023-03-14T01:08:13;11.18;77.37
67868;SHT31;54672;46.096;14.470;2023-03-14T01:10:40;11.18;77.40
67868;SHT31;54672;46.096;14.470;2023-03-14T01:13:06;11.16;77.53
67868;SHT31;54672;46.096;14.470;2023-03-14T01:15:35;11.16;77.49
67868;SHT31;54672;46.096;14.470;2023-03-14T01:18:02;11.25;77.15
67868;SHT31;54672;46.096;14.470;2023-03-14T01:20:27;11.26;77.21
67868;SHT31;54672;46.096;14.470;2023-03-14T01:22:53;11.25;77.32
67868;SHT31;54672;46.096;14.470;2023-03-14T01:25:19;11.16;77.39
67868;SHT31;54672;46.096;14.470;2023-03-14T01:27:44;11.23;77.16
67868;SHT31;54672;46.096;14.470;2023-03-14T01:30:12;11.16;77.31
67868;SHT31;54672;46.096;14.470;2023-03-14T01:32:38;11.15;77.25
67868;SHT31;54672;46.096;14.470;2023-03-14T01:35:04;11.14;77.46
67868;SHT31;54672;46.096;14.470;2023-03-14T01:37:30;11.19;77.27
67868;SHT31;54672;46.096;14.470;2023-03-14T01:39:55;11.20;77.08
67868;SHT31;54672;46.096;14.470;2023-03-14T01:42:21;11.14;77.46
67868;SHT31;54672;46.096;14.470;2023-03-14T01:44:58;11.12;77.82
67868;SHT31;54672;46.096;14.470;2023-03-14T01:47:24;11.14;77.78
67868;SHT31;54672;46.096;14.470;2023-03-14T01:50:01;11.14;77.83
67868;SHT31;54672;46.096;14.470;2023-03-14T01:52:35;11.09;78.09
67868;SHT31;54672;46.096;14.470;2023-03-14T01:55:16;11.02;79.08
67868;SHT31;54672;46.096;14.470;2023-03-14T01:57:59;10.91;79.38
67868;SHT31;54672;46.096;14.470;2023-03-14T02:00:25;10.86;79.81
67868;SHT31;54672;46.096;14.470;2023-03-14T02:02:56;10.86;80.09
67868;SHT31;54672;46.096;14.470;2023-03-14T02:05:30;10.84;79.97
67868;SHT31;54672;46.096;14.470;2023-03-14T02:08:01;10.84;80.16
67868;SHT31;54672;46.096;14.470;2023-03-14T02:10:30;10.84;80.38
67868;SHT31;54672;46.096;14.470;2023-03-14T02:12:59;10.79;80.92
67868;SHT31;54672;46.096;14.470;2023-03-14T02:15:26;10.79;81.08
67868;SHT31;54672;46.096;14.470;2023-03-14T02:17:52;10.82;80.92
67868;SHT31;54672;46.096;14.470;2023-03-14T02:23:07;10.81;80.71
67868;SHT31;54672;46.096;14.470;2023-03-14T02:25:59;10.78;80.51
67868;SHT31;54672;46.096;14.470;2023-03-14T02:28:26;10.89;80.67
67868;SHT31;54672;46.096;14.470;2023-03-14T02:30:51;10.89;80.81
67868;SHT31;54672;46.096;14.470;2023-03-14T02:33:19;10.84;81.07
67868;SHT31;54672;46.096;14.470;2023-03-14T02:35:53;10.84;81.40
67868;SHT31;54672;46.096;14.470;2023-03-14T02:41:08;10.57;82.78
67868;SHT31;54672;46.096;14.470;2023-03-14T02:43:34;10.58;83.01
67868;SHT31;54672;46.096;14.470;2023-03-14T02:46:00;10.53;83.41
67868;SHT31;54672;46.096;14.470;2023-03-14T02:48:28;10.57;83.37
67868;SHT31;54672;46.096;14.470;2023-03-14T02:50:59;10.57;83.17
67868;SHT31;54672;46.096;14.470;2023-03-14T02:53:31;10.61;83.30
67868;SHT31;54672;46.096;14.470;2023-03-14T02:55:57;10.69;83.09
67868;SHT31;54672;46.096;14.470;2023-03-14T02:58:22;10.71;83.11
67868;SHT31;54672;46.096;14.470;2023-03-14T03:00:48;10.77;82.81
67868;SHT31;54672;46.096;14.470;2023-03-14T03:03:14;10.82;82.62
67868;SHT31;54672;46.096;14.470;2023-03-14T03:05:40;10.78;82.40
67868;SHT31;54672;46.096;14.470;2023-03-14T03:08:05;10.85;82.26
67868;SHT31;54672;46.096;14.470;2023-03-14T03:10:31;10.88;82.05
67868;SHT31;54672;46.096;14.470;2023-03-14T03:12:57;10.91;82.04
67868;SHT31;54672;46.096;14.470;2023-03-14T03:15:23;10.96;81.75
67868;SHT31;54672;46.096;14.470;2023-03-14T03:17:48;10.99;81.59
67868;SHT31;54672;46.096;14.470;2023-03-14T03:20:13;10.99;81.64
67868;SHT31;54672;46.096;14.470;2023-03-14T03:22:39;11.02;81.69
67868;SHT31;54672;46.096;14.470;2023-03-14T03:25:05;11.02;81.48
67868;SHT31;54672;46.096;14.470;2023-03-14T03:27:35;11.04;81.54
67868;SHT31;54672;46.096;14.470;2023-03-14T03:30:03;11.02;81.64
67868;SHT31;54672;46.096;14.470;2023-03-14T03:32:29;11.06;81.38
67868;SHT31;54672;46.096;14.470;2023-03-14T03:34:55;11.08;81.39
67868;SHT31;54672;46.096;14.470;2023-03-14T03:37:20;11.12;81.38
67868;SHT31;54672;46.096;14.470;2023-03-14T03:39:46;11.18;81.32
67868;SHT31;54672;46.096;14.470;2023-03-14T03:42:12;11.19;81.48
67868;SHT31;54672;46.096;14.470;2023-03-14T03:44:37;11.18;81.66
67868;SHT31;54672;46.096;14.470;2023-03-14T03:47:03;11.22;81.60
67868;SHT31;54672;46.096;14.470;2023-03-14T03:49:30;11.26;81.57
67868;SHT31;54672;46.096;14.470;2023-03-14T03:51:56;11.32;81.32
67868;SHT31;54672;46.096;14.470;2023-03-14T03:54:22;11.30;81.35
67868;SHT31;54672;46.096;14.470;2023-03-14T03:56:47;11.32;81.43
67868;SHT31;54672;46.096;14.470;2023-03-14T03:59:12;11.42;81.17
67868;SHT31;54672;46.096;14.470;2023-03-14T04:01:38;11.43;80.96
67868;SHT31;54672;46.096;14.470;2023-03-14T04:04:04;11.44;81.37
67868;SHT31;54672;46.096;14.470;2023-03-14T04:06:29;11.37;81.44
67868;SHT31;54672;46.096;14.470;2023-03-14T04:08:55;11.37;81.46
67868;SHT31;54672;46.096;14.470;2023-03-14T04:11:20;11.36;81.61
67868;SHT31;54672;46.096;14.470;2023-03-14T04:13:46;11.29;81.99
67868;SHT31;54672;46.096;14.470;2023-03-14T04:16:20;11.26;82.49
67868;SHT31;54672;46.096;14.470;2023-03-14T04:18:46;11.25;82.64
67868;SHT31;54672;46.096;14.470;2023-03-14T04:21:11;11.27;82.88
67868;SHT31;54672;46.096;14.470;2023-03-14T04:23:37;11.43;82.65
67868;SHT31;54672;46.096;14.470;2023-03-14T04:26:02;11.37;82.83
67868;SHT31;54672;46.096;14.470;2023-03-14T04:28:28;11.50;82.77
67868;SHT31;54672;46.096;14.470;2023-03-14T04:30:54;11.43;82.95
67868;SHT31;54672;46.096;14.470;2023-03-14T04:33:19;11.47;82.81
67868;SHT31;54672;46.096;14.470;2023-03-14T04:35:45;11.62;82.30
67868;SHT31;54672;46.096;14.470;2023-03-14T04:38:12;11.66;82.12
67868;SHT31;54672;46.096;14.470;2023-03-14T04:40:41;11.57;82.23
67868;SHT31;54672;46.096;14.470;2023-03-14T04:43:08;11.57;82.34
67868;SHT31;54672;46.096;14.470;2023-03-14T04:45:35;11.56;82.47
67868;SHT31;54672;46.096;14.470;2023-03-14T04:48:01;11.59;82.38
67868;SHT31;54672;46.096;14.470;2023-03-14T04:50:26;11.53;82.53
67868;SHT31;54672;46.096;14.470;2023-03-14T04:52:52;11.52;82.54
67868;SHT31;54672;46.096;14.470;2023-03-14T04:55:17;11.53;82.54
67868;SHT31;54672;46.096;14.470;2023-03-14T04:57:42;11.53;82.49
67868;SHT31;54672;46.096;14.470;2023-03-14T05:00:08;11.54;82.64
67868;SHT31;54672;46.096;14.470;2023-03-14T05:02:34;11.53;82.64
67868;SHT31;54672;46.096;14.470;2023-03-14T05:05:00;11.52;82.64
67868;SHT31;54672;46.096;14.470;2023-03-14T05:07:26;11.54;82.61
67868;SHT31;54672;46.096;14.470;2023-03-14T05:09:51;11.54;82.56
67868;SHT31;54672;46.096;14.470;2023-03-14T05:12:19;11.54;82.51
67868;SHT31;54672;46.096;14.470;2023-03-14T05:14:45;11.56;82.53
67868;SHT31;54672;46.096;14.470;2023-03-14T05:17:10;11.53;82.70
67868;SHT31;54672;46.096;14.470;2023-03-14T05:19:37;11.57;82.53
67868;SHT31;54672;46.096;14.470;2023-03-14T05:22:03;11.56;82.56
67868;SHT31;54672;46.096;14.470;2023-03-14T05:24:29;11.59;82.51
67868;SHT31;54672;46.096;14.470;2023-03-14T05:26:54;11.66;82.14
67868;SHT31;54672;46.096;14.470;2023-03-14T05:29:20;11.73;82.00
67868;SHT31;54672;46.096;14.470;2023-03-14T05:31:45;11.73;81.91
67868;SHT31;54672;46.096;14.470;2023-03-14T05:34:11;11.74;82.03
67868;SHT31;54672;46.096;14.470;2023-03-14T05:36:38;11.74;81.98
67868;SHT31;54672;46.096;14.470;2023-03-14T05:39:04;11.80;81.81
67868;SHT31;54672;46.096;14.470;2023-03-14T05:41:29;11.88;81.59
67868;SHT31;54672;46.096;14.470;2023-03-14T05:43:55;11.91;81.45
67868;SHT31;54672;46.096;14.470;2023-03-14T05:46:20;11.99;81.05
67868;SHT31;54672;46.096;14.470;2023-03-14T05:48:45;12.11;80.64
67868;SHT31;54672;46.096;14.470;2023-03-14T05:51:11;12.15;80.58
67868;SHT31;54672;46.096;14.470;2023-03-14T05:53:37;12.22;80.23
67868;SHT31;54672;46.096;14.470;2023-03-14T05:56:02;12.22;80.04
67868;SHT31;54672;46.096;14.470;2023-03-14T05:58:28;12.34;79.44
67868;SHT31;54672;46.096;14.470;2023-03-14T06:00:54;12.42;79.30
67868;SHT31;54672;46.096;14.470;2023-03-14T06:03:19;12.39;79.11
67868;SHT31;54672;46.096;14.470;2023-03-14T06:05:45;12.48;78.97
67868;SHT31;54672;46.096;14.470;2023-03-14T06:08:10;12.59;78.70
67868;SHT31;54672;46.096;14.470;2023-03-14T06:10:36;13.15;76.72
67868;SHT31;54672;46.096;14.470;2023-03-14T06:13:02;13.25;75.92
67868;SHT31;54672;46.096;14.470;2023-03-14T06:15:28;13.37;75.14
67868;SHT31;54672;46.096;14.470;2023-03-14T06:17:55;13.41;74.65
67868;SHT31;54672;46.096;14.470;2023-03-14T06:20:20;13.25;74.40
67868;SHT31;54672;46.096;14.470;2023-03-14T06:22:46;13.11;74.96
67868;SHT31;54672;46.096;14.470;2023-03-14T06:25:11;13.10;74.94
67868;SHT31;54672;46.096;14.470;2023-03-14T06:27:37;13.18;74.48
67868;SHT31;54672;46.096;14.470;2023-03-14T06:30:03;13.00;74.88
67868;SHT31;54672;46.096;14.470;2023-03-14T06:32:29;13.44;74.53
67868;SHT31;54672;46.096;14.470;2023-03-14T06:34:55;14.43;70.55
67868;SHT31;54672;46.096;14.470;2023-03-14T06:37:22;14.83;68.71
67868;SHT31;54672;46.096;14.470;2023-03-14T06:39:47;14.46;70.09
67868;SHT31;54672;46.096;14.470;2023-03-14T06:42:13;13.28;73.02
67868;SHT31;54672;46.096;14.470;2023-03-14T06:44:38;13.10;74.12
67868;SHT31;54672;46.096;14.470;2023-03-14T06:47:04;13.35;73.39
67868;SHT31;54672;46.096;14.470;2023-03-14T06:49:30;13.41;72.50
67868;SHT31;54672;46.096;14.470;2023-03-14T06:51:55;13.23;72.94
67868;SHT31;54672;46.096;14.470;2023-03-14T06:54:21;13.20;73.13
67868;SHT31;54672;46.096;14.470;2023-03-14T06:56:46;13.72;72.07
67868;SHT31;54672;46.096;14.470;2023-03-14T06:59:12;14.08;70.37
67868;SHT31;54672;46.096;14.470;2023-03-14T07:01:37;14.16;67.74
67868;SHT31;54672;46.096;14.470;2023-03-14T07:04:04;14.10;68.20
67868;SHT31;54672;46.096;14.470;2023-03-14T07:06:29;13.87;69.48
67868;SHT31;54672;46.096;14.470;2023-03-14T07:08:56;13.79;70.19
67868;SHT31;54672;46.096;14.470;2023-03-14T07:11:21;13.62;69.81
67868;SHT31;54672;46.096;14.470;2023-03-14T07:13:47;13.33;70.24
67868;SHT31;54672;46.096;14.470;2023-03-14T07:16:13;13.17;71.37
67868;SHT31;54672;46.096;14.470;2023-03-14T07:18:38;13.07;71.63
67868;SHT31;54672;46.096;14.470;2023-03-14T07:21:05;13.02;73.68
67868;SHT31;54672;46.096;14.470;2023-03-14T07:23:31;12.92;73.14
67868;SHT31;54672;46.096;14.470;2023-03-14T07:25:56;12.97;73.28
67868;SHT31;54672;46.096;14.470;2023-03-14T07:28:22;12.84;72.71
67868;SHT31;54672;46.096;14.470;2023-03-14T07:30:48;13.03;72.86
67868;SHT31;54672;46.096;14.470;2023-03-14T07:33:13;13.13;71.62
67868;SHT31;54672;46.096;14.470;2023-03-14T07:35:39;13.34;71.71
67868;SHT31;54672;46.096;14.470;2023-03-14T07:38:04;14.61;68.87
67868;SHT31;54672;46.096;14.470;2023-03-14T07:40:30;16.82;62.20
67868;SHT31;54672;46.096;14.470;2023-03-14T07:42:55;16.08;63.71
67868;SHT31;54672;46.096;14.470;2023-03-14T07:45:21;15.45;65.69
67868;SHT31;54672;46.096;14.470;2023-03-14T07:47:46;14.81;66.87
67868;SHT31;54672;46.096;14.470;2023-03-14T07:50:12;14.74;66.65
67868;SHT31;54672;46.096;14.470;2023-03-14T07:52:37;14.46;68.24
67868;SHT31;54672;46.096;14.470;2023-03-14T07:55:05;14.87;67.21
67868;SHT31;54672;46.096;14.470;2023-03-14T07:57:31;14.51;67.57
67868;SHT31;54672;46.096;14.470;2023-03-14T07:59:56;13.98;69.27
67868;SHT31;54672;46.096;14.470;2023-03-14T08:02:22;13.58;71.49
67868;SHT31;54672;46.096;14.470;2023-03-14T08:04:49;13.57;71.76
67868;SHT31;54672;46.096;14.470;2023-03-14T08:07:15;13.38;72.16
67868;SHT31;54672;46.096;14.470;2023-03-14T08:09:41;13.35;72.81
67868;SHT31;54672;46.096;14.470;2023-03-14T08:12:07;13.21;72.70
67868;SHT31;54672;46.096;14.470;2023-03-14T08:14:32;13.18;72.56
67868;SHT31;54672;46.096;14.470;2023-03-14T08:16:58;13.23;73.20
67868;SHT31;54672;46.096;14.470;2023-03-14T08:19:23;13.15;73.85
67868;SHT31;54672;46.096;14.470;2023-03-14T08:21:50;12.83;75.46
67868;SHT31;54672;46.096;14.470;2023-03-14T08:24:15;12.76;74.93
67868;SHT31;54672;46.096;14.470;2023-03-14T08:26:41;12.79;75.81
67868;SHT31;54672;46.096;14.470;2023-03-14T08:29:07;12.99;76.35
67868;SHT31;54672;46.096;14.470;2023-03-14T08:31:34;12.87;75.46
67868;SHT31;54672;46.096;14.470;2023-03-14T08:34:00;13.07;74.00
67868;SHT31;54672;46.096;14.470;2023-03-14T08:36:27;13.02;73.89
67868;SHT31;54672;46.096;14.470;2023-03-14T08:38:52;13.38;72.54
67868;SHT31;54672;46.096;14.470;2023-03-14T08:41:18;13.66;72.97
67868;SHT31;54672;46.096;14.470;2023-03-14T08:43:44;14.22;70.10
67868;SHT31;54672;46.096;14.470;2023-03-14T08:46:10;14.74;66.59
67868;SHT31;54672;46.096;14.470;2023-03-14T08:48:35;16.10;63.79
67868;SHT31;54672;46.096;14.470;2023-03-14T08:51:12;16.42;62.54
67868;SHT31;54672;46.096;14.470;2023-03-14T08:53:38;15.59;64.99
67868;SHT31;54672;46.096;14.470;2023-03-14T08:56:06;15.29;65.52
67868;SHT31;54672;46.096;14.470;2023-03-14T08:58:33;15.25;64.54
67868;SHT31;54672;46.096;14.470;2023-03-14T09:00:58;15.02;66.07
67868;SHT31;54672;46.096;14.470;2023-03-14T09:03:24;14.71;65.60
67868;SHT31;54672;46.096;14.470;2023-03-14T09:05:51;14.34;65.84
67868;SHT31;54672;46.096;14.470;2023-03-14T09:08:16;14.34;67.27
67868;SHT31;54672;46.096;14.470;2023-03-14T09:10:42;14.17;67.60
67868;SHT31;54672;46.096;14.470;2023-03-14T09:13:07;14.20;67.17
67868;SHT31;54672;46.096;14.470;2023-03-14T09:15:33;14.22;66.73
67868;SHT31;54672;46.096;14.470;2023-03-14T09:17:58;13.93;67.32
67868;SHT31;54672;46.096;14.470;2023-03-14T09:20:24;14.02;67.04
67868;SHT31;54672;46.096;14.470;2023-03-14T09:22:49;13.85;66.97
67868;SHT31;54672;46.096;14.470;2023-03-14T09:25:15;13.89;66.67
67868;SHT31;54672;46.096;14.470;2023-03-14T09:27:40;13.61;67.80
67868;SHT31;54672;46.096;14.470;2023-03-14T09:30:07;13.79;68.01
67868;SHT31;54672;46.096;14.470;2023-03-14T09:32:33;13.65;67.44
67868;SHT31;54672;46.096;14.470;2023-03-14T09:34:58;13.72;67.86
67868;SHT31;54672;46.096;14.470;2023-03-14T09:37:23;13.53;67.64
67868;SHT31;54672;46.096;14.470;2023-03-14T09:39:49;13.58;67.67
67868;SHT31;54672;46.096;14.470;2023-03-14T09:42:17;13.51;67.93
67868;SHT31;54672;46.096;14.470;2023-03-14T09:45:05;13.53;67.78
67868;SHT31;54672;46.096;14.470;2023-03-14T09:47:33;13.25;67.13
67868;SHT31;54672;46.096;14.470;2023-03-14T09:50:03;13.14;67.69
67868;SHT31;54672;46.096;14.470;2023-03-14T09:52:35;13.15;67.93
67868;SHT31;54672;46.096;14.470;2023-03-14T09:55:09;13.03;68.28
67868;SHT31;54672;46.096;14.470;2023-03-14T09:57:37;12.86;68.70
67868;SHT31;54672;46.096;14.470;2023-03-14T10:00:10;12.92;69.84
67868;SHT31;54672;46.096;14.470;2023-03-14T10:02:40;12.77;69.86
67868;SHT31;54672;46.096;14.470;2023-03-14T10:05:18;12.76;68.30
67868;SHT31;54672;46.096;14.470;2023-03-14T10:07:45;12.75;68.89
67868;SHT31;54672;46.096;14.470;2023-03-14T10:10:19;12.66;69.18
67868;SHT31;54672;46.096;14.470;2023-03-14T10:12:58;12.50;70.80
67868;SHT31;54672;46.096;14.470;2023-03-14T10:15:31;12.39;71.67
67868;SHT31;54672;46.096;14.470;2023-03-14T10:18:00;12.35;73.19
67868;SHT31;54672;46.096;14.470;2023-03-14T10:20:33;12.35;74.00
67868;SHT31;54672;46.096;14.470;2023-03-14T10:25:38;12.26;73.66
67868;SHT31;54672;46.096;14.470;2023-03-14T10:28:04;11.98;73.83
67868;SHT31;54672;46.096;14.470;2023-03-14T10:30:39;12.31;74.02
67868;SHT31;54672;46.096;14.470;2023-03-14T10:33:12;12.25;73.66
67868;SHT31;54672;46.096;14.470;2023-03-14T10:35:44;12.59;73.06
67868;SHT31;54672;46.096;14.470;2023-03-14T10:38:15;12.56;73.41
67868;SHT31;54672;46.096;14.470;2023-03-14T10:40:47;13.17;72.56
67868;SHT31;54672;46.096;14.470;2023-03-14T10:43:18;13.69;70.40
67868;SHT31;54672;46.096;14.470;2023-03-14T10:45:55;13.76;70.25
67868;SHT31;54672;46.096;14.470;2023-03-14T10:48:29;14.17;69.76
67868;SHT31;54672;46.096;14.470;2023-03-14T10:51:24;13.92;68.76
67868;SHT31;54672;46.096;14.470;2023-03-14T10:54:00;13.86;68.59
67868;SHT31;54672;46.096;14.470;2023-03-14T10:56:27;13.74;69.83
67868;SHT31;54672;46.096;14.470;2023-03-14T10:58:58;13.37;70.05
67868;SHT31;54672;46.096;14.470;2023-03-14T11:07:09;12.86;71.70
67868;SHT31;54672;46.096;14.470;2023-03-14T11:09:46;13.00;71.33
67868;SHT31;54672;46.096;14.470;2023-03-14T11:12:55;12.80;73.66
67868;SHT31;54672;46.096;14.470;2023-03-14T11:15:30;12.41;74.24
67868;SHT31;54672;46.096;14.470;2023-03-14T11:18:12;12.50;75.32
67868;SHT31;54672;46.096;14.470;2023-03-14T11:20:46;12.26;75.41
67868;SHT31;54672;46.096;14.470;2023-03-14T11:26:25;11.80;78.71
67868;SHT31;54672;46.096;14.470;2023-03-14T11:29:29;11.74;80.19
67868;SHT31;54672;46.096;14.470;2023-03-14T11:31:55;11.57;80.50
67868;SHT31;54672;46.096;14.470;2023-03-14T11:39:50;11.29;82.63
67868;SHT31;54672;46.096;14.470;2023-03-14T11:42:18;11.42;82.01
67868;SHT31;54672;46.096;14.470;2023-03-14T11:44:47;11.44;82.73
67868;SHT31;54672;46.096;14.470;2023-03-14T11:47:30;11.37;83.83
67868;SHT31;54672;46.096;14.470;2023-03-14T11:52:37;11.11;83.95
67868;SHT31;54672;46.096;14.470;2023-03-14T11:55:29;11.26;85.84
67868;SHT31;54672;46.096;14.470;2023-03-14T11:58:01;11.77;83.45
67868;SHT31;54672;46.096;14.470;2023-03-14T12:00:28;12.07;84.33
67868;SHT31;54672;46.096;14.470;2023-03-14T12:10:52;11.50;81.07
67868;SHT31;54672;46.096;14.470;2023-03-14T12:13:19;11.77;80.70
67868;SHT31;54672;46.096;14.470;2023-03-14T12:15:59;11.87;81.38
67868;SHT31;54672;46.096;14.470;2023-03-14T12:18:37;11.88;80.60
67868;SHT31;54672;46.096;14.470;2023-03-14T12:21:06;11.84;79.92
67868;SHT31;54672;46.096;14.470;2023-03-14T12:23:56;11.70;82.04
67868;SHT31;54672;46.096;14.470;2023-03-14T12:26:27;11.95;78.99
67868;SHT31;54672;46.096;14.470;2023-03-14T12:29:16;12.05;80.02
67868;SHT31;54672;46.096;14.470;2023-03-14T12:32:08;12.17;78.36
67868;SHT31;54672;46.096;14.470;2023-03-14T12:34:41;12.20;78.31
67868;SHT31;54672;46.096;14.470;2023-03-14T12:44:50;12.67;77.33
67868;SHT31;54672;46.096;14.470;2023-03-14T12:49:46;12.35;78.72
67868;SHT31;54672;46.096;14.470;2023-03-14T12:52:19;12.35;78.77
67868;SHT31;54672;46.096;14.470;2023-03-14T12:55:10;12.29;78.89
67868;SHT31;54672;46.096;14.470;2023-03-14T12:57:55;12.26;78.90
67868;SHT31;54672;46.096;14.470;2023-03-14T13:00:34;12.07;79.27
67868;SHT31;54672;46.096;14.470;2023-03-14T13:03:15;12.17;78.75
67868;SHT31;54672;46.096;14.470;2023-03-14T13:05:54;12.13;79.07
67868;SHT31;54672;46.096;14.470;2023-03-14T13:11:06;12.35;78.43
67868;SHT31;54672;46.096;14.470;2023-03-14T13:13:35;12.36;78.50
67868;SHT31;54672;46.096;14.470;2023-03-14T13:16:02;12.44;78.37
67868;SHT31;54672;46.096;14.470;2023-03-14T13:18:36;12.50;78.43
67868;SHT31;54672;46.096;14.470;2023-03-14T13:21:22;12.31;81.21
67868;SHT31;54672;46.096;14.470;2023-03-14T13:24:07;12.08;82.14
67868;SHT31;54672;46.096;14.470;2023-03-14T13:26:43;11.84;83.11
67868;SHT31;54672;46.096;14.470;2023-03-14T13:29:16;11.73;83.68
67868;SHT31;54672;46.096;14.470;2023-03-14T13:31:46;11.63;84.42
67868;SHT31;54672;46.096;14.470;2023-03-14T13:34:13;11.62;83.85
67868;SHT31;54672;46.096;14.470;2023-03-14T13:36:39;11.63;84.44
67868;SHT31;54672;46.096;14.470;2023-03-14T13:39:10;11.52;84.63
67868;SHT31;54672;46.096;14.470;2023-03-14T13:41:38;11.54;83.41
67868;SHT31;54672;46.096;14.470;2023-03-14T13:44:07;11.47;84.18
67868;SHT31;54672;46.096;14.470;2023-03-14T13:46:34;11.56;83.43
67868;SHT31;54672;46.096;14.470;2023-03-14T13:49:04;11.52;83.57
67868;SHT31;54672;46.096;14.470;2023-03-14T13:51:30;11.46;83.71
67868;SHT31;54672;46.096;14.470;2023-03-14T13:53:58;11.50;84.34
67868;SHT31;54672;46.096;14.470;2023-03-14T13:56:30;11.42;84.30
67868;SHT31;54672;46.096;14.470;2023-03-14T13:58:57;11.27;85.10
67868;SHT31;54672;46.096;14.470;2023-03-14T14:01:31;11.16;86.32
67868;SHT31;54672;46.096;14.470;2023-03-14T14:03:58;11.08;87.31
67868;SHT31;54672;46.096;14.470;2023-03-14T14:08:56;10.78;89.17
67868;SHT31;54672;46.096;14.470;2023-03-14T14:11:41;10.75;89.59
67868;SHT31;54672;46.096;14.470;2023-03-14T14:14:13;10.81;89.57
67868;SHT31;54672;46.096;14.470;2023-03-14T14:16:42;10.81;89.62
67868;SHT31;54672;46.096;14.470;2023-03-14T14:19:09;10.91;89.97
67868;SHT31;54672;46.096;14.470;2023-03-14T14:21:34;10.84;90.75
67868;SHT31;54672;46.096;14.470;2023-03-14T14:24:00;10.75;90.28
67868;SHT31;54672;46.096;14.470;2023-03-14T14:26:26;10.72;90.46
67868;SHT31;54672;46.096;14.470;2023-03-14T14:29:04;10.78;90.56
67868;SHT31;54672;46.096;14.470;2023-03-14T14:31:29;10.82;90.16
67868;SHT31;54672;46.096;14.470;2023-03-14T14:34:03;10.86;89.84
67868;SHT31;54672;46.096;14.470;2023-03-14T14:36:32;10.92;89.52
67868;SHT31;54672;46.096;14.470;2023-03-14T14:41:40;11.04;88.44
67868;SHT31;54672;46.096;14.470;2023-03-14T14:44:06;11.05;88.03
67868;SHT31;54672;46.096;14.470;2023-03-14T14:46:34;11.04;89.04
67868;SHT31;54672;46.096;14.470;2023-03-14T14:49:13;10.94;89.13
67868;SHT31;54672;46.096;14.470;2023-03-14T14:51:44;10.91;88.59
67868;SHT31;54672;46.096;14.470;2023-03-14T14:54:17;10.89;89.40
67868;SHT31;54672;46.096;14.470;2023-03-14T14:56:48;10.81;89.12
67868;SHT31;54672;46.096;14.470;2023-03-14T14:59:27;10.75;89.65
67868;SHT31;54672;46.096;14.470;2023-03-14T15:02:01;10.84;89.31
67868;SHT31;54672;46.096;14.470;2023-03-14T15:04:30;10.72;88.12
67868;SHT31;54672;46.096;14.470;2023-03-14T15:06:55;10.78;88.46
67868;SHT31;54672;46.096;14.470;2023-03-14T15:09:21;10.82;88.81
67868;SHT31;54672;46.096;14.470;2023-03-14T15:11:47;10.77;88.44
67868;SHT31;54672;46.096;14.470;2023-03-14T15:14:13;10.75;88.48
67868;SHT31;54672;46.096;14.470;2023-03-14T15:16:39;10.74;89.00
67868;SHT31;54672;46.096;14.470;2023-03-14T15:19:34;10.74;89.01
67868;SHT31;54672;46.096;14.470;2023-03-14T15:22:00;10.64;89.32
67868;SHT31;54672;46.096;14.470;2023-03-14T15:24:26;10.69;89.30
67868;SHT31;54672;46.096;14.470;2023-03-14T15:26:51;10.78;88.94
67868;SHT31;54672;46.096;14.470;2023-03-14T15:29:17;10.79;89.04
67868;SHT31;54672;46.096;14.470;2023-03-14T15:31:42;10.86;88.96
67868;SHT31;54672;46.096;14.470;2023-03-14T15:34:10;10.82;88.17
67868;SHT31;54672;46.096;14.470;2023-03-14T15:36:37;10.86;88.67
67868;SHT31;54672;46.096;14.470;2023-03-14T15:39:04;10.86;88.11
67868;SHT31;54672;46.096;14.470;2023-03-14T15:41:30;11.04;87.97
67868;SHT31;54672;46.096;14.470;2023-03-14T15:43:56;11.02;88.60
67868;SHT31;54672;46.096;14.470;2023-03-14T15:46:22;11.02;88.99
67868;SHT31;54672;46.096;14.470;2023-03-14T15:48:49;10.81;89.55
67868;SHT31;54672;46.096;14.470;2023-03-14T15:51:15;10.67;90.76
67868;SHT31;54672;46.096;14.470;2023-03-14T15:53:41;10.53;91.45
67868;SHT31;54672;46.096;14.470;2023-03-14T15:56:12;10.50;91.88
67868;SHT31;54672;46.096;14.470;2023-03-14T15:58:38;10.48;92.43
67868;SHT31;54672;46.096;14.470;2023-03-14T16:01:06;10.47;92.34
67868;SHT31;54672;46.096;14.470;2023-03-14T16:03:34;10.43;93.03
67868;SHT31;54672;46.096;14.470;2023-03-14T16:06:00;10.44;93.04
67868;SHT31;54672;46.096;14.470;2023-03-14T16:08:26;10.44;93.78
67868;SHT31;54672;46.096;14.470;2023-03-14T16:10:57;10.36;93.09
67868;SHT31;54672;46.096;14.470;2023-03-14T16:13:23;10.16;93.86
67868;SHT31;54672;46.096;14.470;2023-03-14T16:16:00;10.07;94.47